createdAt,value
2024-05-09T00:13:51.937Z,35.90
2024-05-09T00:28:51.066Z,36.10
2024-05-09T00:43:51.333Z,36.00
2024-05-09T00:58:51.480Z,36.20
2024-05-09T01:13:51.925Z,36.60
2024-05-09T01:28:52.201Z,36.70
2024-05-09T01:43:52.686Z,36.80
2024-05-09T01:58:52.948Z,37.00
2024-05-09T02:13:53.081Z,37.10
2024-05-09T02:28:56.073Z,36.90
2024-05-09T02:43:55.561Z,37.10
2024-05-09T02:58:54.252Z,36.90
2024-05-09T03:13:54.461Z,36.90
2024-05-09T03:28:57.290Z,37.20
2024-05-09T03:43:55.033Z,37.50
2024-05-09T03:58:55.490Z,37.60
2024-05-09T04:13:55.727Z,38.00
2024-05-09T04:28:56.035Z,38.10
2024-05-09T04:43:56.319Z,37.60
2024-05-09T04:58:56.649Z,37.10
2024-05-09T05:13:57.043Z,37.00
2024-05-09T05:28:57.291Z,37.60
2024-05-09T05:43:59.665Z,37.30
2024-05-09T05:58:57.891Z,37.10
2024-05-09T06:13:58.300Z,36.90
2024-05-09T06:28:58.757Z,36.60
2024-05-09T06:43:58.980Z,36.20
2024-05-09T06:58:59.231Z,36.30
2024-05-09T07:13:59.669Z,36.70
2024-05-09T07:28:59.718Z,36.30
2024-05-09T07:44:00.174Z,35.20
2024-05-09T07:59:00.399Z,35.60
2024-05-09T08:14:00.586Z,35.70
2024-05-09T08:29:00.985Z,35.60
2024-05-09T08:44:01.226Z,35.00
2024-05-09T08:59:01.496Z,35.00
2024-05-09T09:14:01.869Z,34.30
2024-05-09T09:29:02.199Z,34.40
2024-05-09T09:44:02.539Z,33.90
2024-05-09T09:59:02.853Z,34.40
2024-05-09T10:14:07.142Z,33.40
2024-05-09T10:29:03.517Z,33.90
2024-05-09T10:44:03.742Z,33.30
2024-05-09T10:59:04.398Z,33.00
2024-05-09T11:14:04.423Z,33.20
2024-05-09T11:29:04.669Z,31.30
2024-05-09T11:44:04.980Z,31.70
2024-05-09T11:59:05.400Z,32.90
2024-05-09T12:14:05.631Z,32.80
2024-05-09T12:29:05.950Z,31.40
2024-05-09T12:44:06.260Z,31.10
2024-05-09T12:59:06.641Z,31.50
2024-05-09T13:14:06.894Z,32.20
2024-05-09T13:29:07.263Z,32.50
2024-05-09T13:44:07.168Z,32.40
2024-05-09T13:59:07.863Z,33.00
2024-05-09T14:14:08.222Z,33.10
2024-05-09T14:29:08.540Z,33.00
2024-05-09T14:44:08.772Z,33.60
2024-05-09T14:59:09.108Z,33.50
2024-05-09T15:14:09.416Z,33.40
2024-05-09T15:29:09.820Z,33.10
2024-05-09T15:44:10.085Z,32.10
2024-05-09T15:59:11.511Z,32.40
2024-05-09T16:14:10.786Z,32.70
2024-05-09T16:29:11.113Z,32.30
2024-05-09T16:44:11.427Z,33.00
2024-05-09T16:59:11.761Z,33.10
2024-05-09T17:14:13.792Z,32.70
2024-05-09T17:29:13.223Z,32.80
2024-05-09T17:44:12.260Z,33.20
2024-05-09T17:59:12.972Z,34.10
2024-05-09T18:14:15.777Z,34.60
2024-05-09T18:29:13.858Z,34.10
2024-05-09T18:44:13.935Z,34.50
2024-05-09T18:59:14.222Z,33.80
2024-05-09T19:14:14.559Z,33.60
2024-05-09T19:29:14.882Z,33.90
2024-05-09T19:44:15.274Z,35.50
2024-05-09T19:59:15.558Z,35.30
2024-05-09T20:14:15.459Z,34.40
2024-05-09T20:29:17.579Z,34.30
2024-05-09T20:44:16.070Z,34.40
2024-05-09T20:59:16.774Z,34.60
2024-05-09T21:14:17.108Z,34.00
2024-05-09T21:29:17.491Z,33.60
2024-05-09T21:44:17.698Z,33.30
2024-05-09T21:59:18.062Z,34.30
2024-05-09T22:14:18.386Z,36.10
2024-05-09T22:29:18.662Z,35.60
2024-05-09T22:44:18.978Z,36.00
2024-05-09T22:59:19.302Z,38.00
2024-05-09T23:14:19.661Z,38.50
2024-05-09T23:29:19.995Z,37.30
2024-05-09T23:44:21.382Z,37.20
2024-05-09T23:59:21.990Z,37.10
